Cleveland, Ohio
Traffic Map
Current Weather Conditions
Cleveland, Ohio
Clear
Clear

Feels Like: 5°
Wind Chill: Ceiling: Unl
Heat Index: Visibility: 10mi
Dew Point: Wind: 7mph
Humidity: 74% Direction: 290° (WNW)
Pressure: 30.13in Gusts: 0mph
Raw Report DataKBKL 281553Z 29006KT 10SM CLR 07/03 A3013 RMK AO2 SLP207 T00720028
Traffic Incident Summary
Active as of:
Severity:
Category:
InformationThere was an issue retrieving the traffic information for this location. Please try a different location or try again shortly.
Advertisements
Track Severe Weather on mobile